Time;durP1;ratioP1;P1;durP2;ratioP2;P2;SDS_P1;SDS_P2;PMS_P1;PMS_P2;Temp;Humidity;BMP_temperature;BMP_pressure;BME280_temperature;BME280_humidity;BME280_pressure;Samples;Min_cycle;Max_cycle;Signal;HPM_P1;HPM_P2
2022/05/31 00:00:18;;;;;;;2.17;1.37;;;6.80;99.90;;;;;;5015578;28;20495;-84
2022/05/31 00:02:45;;;;;;;2.90;1.43;;;6.80;99.90;;;;;;5033158;28;20541;-82
2022/05/31 00:05:11;;;;;;;2.10;1.00;;;6.80;99.90;;;;;;5033028;28;21022;-84
2022/05/31 00:07:39;;;;;;;3.50;1.73;;;6.80;99.90;;;;;;5032648;28;20408;-83
2022/05/31 00:10:05;;;;;;;2.27;2.03;;;6.80;99.90;;;;;;5032332;28;20461;-84
2022/05/31 00:12:32;;;;;;;4.40;1.43;;;6.80;99.90;;;;;;5015049;28;20415;-84
2022/05/31 00:14:58;;;;;;;2.13;1.30;;;6.80;99.90;;;;;;5032910;28;20424;-84
2022/05/31 00:17:23;;;;;;;2.30;1.57;;;6.80;99.90;;;;;;5032641;28;20775;-84
2022/05/31 00:19:49;;;;;;;2.13;1.50;;;6.70;99.90;;;;;;5032750;28;20583;-83
2022/05/31 00:22:17;;;;;;;3.63;1.90;;;6.70;99.90;;;;;;5014511;28;20217;-83
2022/05/31 00:24:43;;;;;;;2.37;1.53;;;6.70;99.90;;;;;;5014507;28;20170;-84
2022/05/31 00:27:11;;;;;;;1.83;1.70;;;6.60;99.90;;;;;;5014855;28;21073;-84
2022/05/31 00:29:37;;;;;;;1.80;0.97;;;6.60;99.90;;;;;;5013078;28;20468;-83
2022/05/31 00:32:07;;;;;;;2.03;1.30;;;6.60;99.90;;;;;;5013693;28;20420;-83
2022/05/31 00:34:35;;;;;;;3.10;2.23;;;6.50;99.90;;;;;;5032520;28;20175;-83
2022/05/31 00:37:01;;;;;;;1.93;1.27;;;6.60;99.90;;;;;;5015014;28;20427;-83
2022/05/31 00:39:27;;;;;;;2.10;1.30;;;6.60;99.90;;;;;;5014690;28;20425;-83
2022/05/31 00:42:11;;;;;;;3.93;1.73;;;6.50;99.90;;;;;;5014970;28;21002;-83
2022/05/31 00:44:37;;;;;;;4.37;1.63;;;6.50;99.90;;;;;;5014978;28;20265;-83
2022/05/31 00:47:09;;;;;;;1.80;1.60;;;6.50;99.90;;;;;;5014847;28;20505;-83
2022/05/31 00:49:46;;;;;;;2.00;1.00;;;6.40;99.90;;;;;;5015004;28;20262;-83
2022/05/31 00:52:21;;;;;;;2.60;1.47;;;6.40;99.90;;;;;;5032846;28;20413;-83
2022/05/31 00:55:18;;;;;;;2.33;1.03;;;6.40;99.90;;;;;;5014808;28;20426;-83
2022/05/31 00:57:54;;;;;;;2.90;1.03;;;6.40;99.90;;;;;;5032715;28;20462;-83
2022/05/31 01:00:20;;;;;;;3.07;1.80;;;6.20;99.90;;;;;;5034534;28;20440;-83
2022/05/31 01:02:47;;;;;;;3.50;1.80;;;6.20;99.90;;;;;;5036724;28;20822;-83
2022/05/31 01:05:14;;;;;;;2.40;1.10;;;6.20;99.90;;;;;;5036840;28;20489;-84
2022/05/31 01:07:39;;;;;;;2.77;1.43;;;6.10;99.90;;;;;;5036801;28;20421;-82
2022/05/31 01:10:08;;;;;;;3.17;1.70;;;6.10;99.90;;;;;;5036326;28;20430;-82
2022/05/31 01:12:34;;;;;;;1.83;1.27;;;6.10;99.90;;;;;;5036601;28;20262;-84
2022/05/31 01:15:00;;;;;;;2.60;1.40;;;6.20;99.90;;;;;;5036771;28;20414;-84
2022/05/31 01:17:26;;;;;;;2.57;0.90;;;6.20;99.90;;;;;;5036590;28;20531;-84
2022/05/31 01:19:56;;;;;;;3.80;1.13;;;6.10;99.90;;;;;;5037271;28;20931;-84
2022/05/31 01:22:41;;;;;;;1.70;1.27;;;6.10;99.90;;;;;;5039014;28;20289;-84
2022/05/31 01:25:21;;;;;;;3.07;1.73;;;6.10;99.90;;;;;;5036824;28;20410;-82
2022/05/31 01:28:24;;;;;;;2.43;0.73;;;6.00;99.90;;;;;;5037125;28;20929;-82
2022/05/31 01:31:02;;;;;;;4.67;1.90;;;6.00;99.90;;;;;;5036968;28;20524;-82
2022/05/31 01:33:44;;;;;;;4.40;1.93;;;5.90;99.90;;;;;;5036329;28;20406;-83
2022/05/31 01:36:24;;;;;;;3.83;1.07;;;5.90;99.90;;;;;;5036338;28;20414;-82
2022/05/31 01:39:10;;;;;;;2.60;1.53;;;5.90;99.90;;;;;;5035843;28;20401;-80
2022/05/31 01:41:54;;;;;;;3.20;2.03;;;5.90;99.90;;;;;;5036107;28;20461;-80
2022/05/31 01:44:23;;;;;;;2.17;1.50;;;6.00;99.90;;;;;;5036065;28;20421;-80
2022/05/31 01:46:51;;;;;;;2.80;1.40;;;5.90;99.90;;;;;;5035974;28;20764;-80
2022/05/31 01:49:17;;;;;;;3.23;1.90;;;5.80;99.90;;;;;;5018179;28;20429;-83
2022/05/31 01:51:45;;;;;;;2.03;1.23;;;5.80;99.90;;;;;;5018292;28;20433;-82
2022/05/31 01:54:14;;;;;;;2.30;1.73;;;5.80;99.90;;;;;;5017805;28;20412;-83
2022/05/31 01:56:42;;;;;;;2.37;1.43;;;5.80;99.90;;;;;;5017955;28;20753;-79
2022/05/31 01:59:08;;;;;;;3.97;1.40;;;5.70;99.90;;;;;;5035466;28;20418;-80
2022/05/31 02:01:36;;;;;;;3.47;1.80;;;5.70;99.90;;;;;;5035684;28;20564;-80
2022/05/31 02:04:02;;;;;;;1.90;0.87;;;5.70;99.90;;;;;;5035699;28;20411;-80
2022/05/31 02:06:33;;;;;;;1.73;1.03;;;5.70;99.90;;;;;;5035466;28;20443;-84
2022/05/31 02:08:59;;;;;;;3.30;0.90;;;5.70;99.90;;;;;;5017526;28;20790;-81
2022/05/31 02:11:26;;;;;;;1.80;0.87;;;5.60;99.90;;;;;;5035368;28;20796;-84
2022/05/31 02:13:52;;;;;;;3.03;1.30;;;5.60;99.90;;;;;;5035578;28;20408;-84
2022/05/31 02:16:17;;;;;;;2.50;2.30;;;5.50;99.90;;;;;;5035534;28;20475;-84
2022/05/31 02:21:35;;;;;;;3.80;1.77;;;5.60;99.90;;;;;;5035652;28;20305;-82
2022/05/31 02:24:06;;;;;;;1.60;1.00;;;5.50;99.90;;;;;;5035090;28;20779;-82
2022/05/31 02:26:33;;;;;;;2.37;0.80;;;5.50;99.90;;;;;;5035357;28;20873;-82
2022/05/31 02:28:59;;;;;;;3.10;0.90;;;5.50;99.90;;;;;;5035065;28;20960;-81
2022/05/31 02:31:26;;;;;;;3.40;1.47;;;5.40;99.90;;;;;;5035332;28;20584;-82
2022/05/31 02:33:51;;;;;;;2.97;1.13;;;5.50;99.90;;;;;;5035056;28;20779;-82
2022/05/31 02:36:17;;;;;;;2.77;1.80;;;5.50;99.90;;;;;;5035152;28;20426;-82
2022/05/31 02:38:42;;;;;;;2.20;1.40;;;5.50;99.90;;;;;;5034656;28;20252;-81
2022/05/31 02:41:08;;;;;;;2.37;1.43;;;5.50;99.90;;;;;;5035001;28;20208;-81
2022/05/31 02:43:33;;;;;;;2.50;1.67;;;5.40;99.90;;;;;;5017249;28;20179;-82
2022/05/31 02:46:00;;;;;;;4.07;1.70;;;5.40;99.90;;;;;;5017167;28;20513;-82
2022/05/31 02:48:26;;;;;;;5.33;1.80;;;5.30;99.90;;;;;;5034860;28;20183;-80
2022/05/31 02:50:51;;;;;;;1.87;0.77;;;5.40;99.90;;;;;;5033643;28;20414;-81
2022/05/31 02:53:17;;;;;;;2.80;1.30;;;5.40;99.90;;;;;;5034861;28;20576;-81
2022/05/31 02:55:42;;;;;;;4.57;1.90;;;5.40;99.90;;;;;;5034368;28;20677;-81
2022/05/31 02:58:11;;;;;;;2.57;1.63;;;5.40;99.90;;;;;;5016993;28;20181;-80
2022/05/31 03:00:36;;;;;;;2.30;1.27;;;5.30;99.90;;;;;;5034665;28;20533;-80
2022/05/31 03:03:02;;;;;;;2.33;1.30;;;5.30;99.90;;;;;;5016756;28;20466;-81
2022/05/31 03:05:27;;;;;;;3.33;1.93;;;5.30;99.90;;;;;;5034626;28;20195;-81
2022/05/31 03:07:53;;;;;;;5.97;1.90;;;5.30;99.90;;;;;;5034304;28;20543;-80
2022/05/31 03:10:18;;;;;;;3.20;2.00;;;5.30;99.90;;;;;;5034037;28;20177;-81
2022/05/31 03:12:45;;;;;;;3.67;1.90;;;5.30;99.90;;;;;;5034513;28;20167;-80
2022/05/31 03:15:15;;;;;;;3.70;1.50;;;5.20;99.90;;;;;;5016631;28;20257;-80
2022/05/31 03:17:48;;;;;;;4.93;1.60;;;5.10;99.90;;;;;;5034341;28;20509;-81
2022/05/31 03:20:21;;;;;;;3.47;2.00;;;5.10;99.90;;;;;;5034331;28;20414;-81
2022/05/31 03:23:02;;;;;;;1.83;1.67;;;5.20;99.90;;;;;;5033469;28;20984;-80
2022/05/31 03:25:28;;;;;;;3.50;2.83;;;5.10;99.90;;;;;;5016092;28;20416;-80
2022/05/31 03:27:59;;;;;;;4.53;1.80;;;5.10;99.90;;;;;;5034004;28;20416;-80
2022/05/31 03:30:24;;;;;;;3.47;1.77;;;5.20;99.90;;;;;;5033957;28;20863;-80
2022/05/31 03:32:52;;;;;;;2.63;2.33;;;5.20;99.90;;;;;;5033995;28;20422;-81
2022/05/31 03:35:18;;;;;;;2.77;1.67;;;5.30;99.90;;;;;;5034031;28;20557;-80
2022/05/31 03:37:43;;;;;;;1.43;0.70;;;5.20;99.90;;;;;;5033911;28;20425;-80
2022/05/31 03:40:09;;;;;;;3.33;1.90;;;5.20;99.90;;;;;;5033623;28;20178;-81
2022/05/31 03:42:35;;;;;;;3.70;1.97;;;5.10;99.90;;;;;;5033747;28;20214;-80
2022/05/31 03:45:01;;;;;;;5.47;1.83;;;5.20;99.90;;;;;;5033819;28;20418;-80
2022/05/31 03:47:26;;;;;;;3.30;1.27;;;5.20;99.90;;;;;;5033693;28;20171;-80
2022/05/31 03:49:52;;;;;;;3.10;1.43;;;5.20;99.90;;;;;;5033759;28;20168;-80
2022/05/31 03:52:18;;;;;;;2.73;1.70;;;5.20;99.90;;;;;;5033698;28;20174;-81
2022/05/31 03:54:43;;;;;;;2.53;1.10;;;5.20;99.90;;;;;;5033257;28;20216;-81
2022/05/31 03:57:15;;;;;;;3.43;2.00;;;5.20;99.90;;;;;;5016039;28;20178;-82
2022/05/31 03:59:41;;;;;;;4.20;2.57;;;5.20;99.90;;;;;;5033708;28;20249;-81
2022/05/31 04:02:06;;;;;;;4.80;2.33;;;5.20;99.90;;;;;;5015714;28;20559;-81
2022/05/31 04:04:32;;;;;;;4.10;2.17;;;5.30;99.90;;;;;;5033402;28;20177;-81
2022/05/31 04:06:58;;;;;;;4.13;1.80;;;5.40;99.90;;;;;;5033454;28;20181;-81
2022/05/31 04:09:23;;;;;;;3.10;1.50;;;5.40;99.90;;;;;;5033017;28;20162;-82
2022/05/31 04:11:49;;;;;;;2.30;1.87;;;5.50;99.90;;;;;;5033379;28;20417;-82
2022/05/31 04:14:15;;;;;;;3.00;1.53;;;5.50;99.90;;;;;;5033298;28;20168;-82
2022/05/31 04:16:41;;;;;;;3.37;1.53;;;5.50;99.90;;;;;;5033318;28;20177;-82
2022/05/31 04:19:07;;;;;;;3.37;1.87;;;5.50;99.90;;;;;;5033278;28;20409;-83
2022/05/31 04:21:32;;;;;;;2.90;2.03;;;5.70;99.90;;;;;;5033086;28;20214;-82
2022/05/31 04:23:58;;;;;;;4.87;2.93;;;5.90;99.90;;;;;;5032811;28;20639;-83
2022/05/31 04:26:27;;;;;;;4.73;2.80;;;6.20;99.90;;;;;;5015564;28;20171;-82
2022/05/31 04:28:53;;;;;;;6.53;2.07;;;6.20;99.90;;;;;;5032848;28;20210;-83
2022/05/31 04:31:19;;;;;;;7.20;3.63;;;6.40;99.90;;;;;;5033229;28;20426;-83
2022/05/31 04:33:44;;;;;;;6.00;3.00;;;6.50;99.90;;;;;;5033081;28;20183;-83
2022/05/31 04:36:13;;;;;;;4.53;3.20;;;6.50;99.90;;;;;;5033074;28;20218;-83
2022/05/31 04:38:39;;;;;;;6.90;3.63;;;6.60;99.90;;;;;;5032610;28;20174;-82
2022/05/31 04:41:05;;;;;;;5.90;3.70;;;6.80;99.90;;;;;;5015239;28;20435;-82
2022/05/31 04:43:32;;;;;;;4.50;3.13;;;6.90;99.90;;;;;;5032926;28;20464;-83
2022/05/31 04:46:09;;;;;;;6.40;3.47;;;6.90;99.90;;;;;;5033035;28;20489;-83
2022/05/31 04:48:35;;;;;;;5.77;4.50;;;7.00;99.90;;;;;;5033005;28;20409;-84
2022/05/31 04:51:00;;;;;;;7.17;4.27;;;7.10;99.90;;;;;;5032958;28;20423;-83
2022/05/31 04:53:26;;;;;;;4.83;3.40;;;7.20;99.90;;;;;;5032561;28;20174;-83
2022/05/31 04:55:58;;;;;;;5.17;3.20;;;7.20;99.90;;;;;;5031668;28;20262;-83
2022/05/31 04:58:23;;;;;;;4.50;3.30;;;7.30;99.90;;;;;;5032818;28;20172;-84
2022/05/31 05:00:49;;;;;;;5.23;3.80;;;7.30;99.90;;;;;;5032827;28;20443;-83
2022/05/31 05:03:14;;;;;;;5.50;4.20;;;7.40;99.90;;;;;;5032748;28;20221;-83
2022/05/31 05:05:39;;;;;;;4.90;3.50;;;7.50;99.90;;;;;;5032779;28;20216;-82
2022/05/31 05:08:05;;;;;;;6.97;4.13;;;7.60;99.90;;;;;;5032587;28;20230;-82
2022/05/31 05:10:30;;;;;;;6.73;4.30;;;7.70;99.90;;;;;;5032614;28;20657;-81
2022/05/31 05:12:56;;;;;;;6.60;4.00;;;7.80;99.90;;;;;;5032678;28;20176;-82
2022/05/31 05:15:21;;;;;;;4.93;3.40;;;7.90;99.90;;;;;;5032680;28;20245;-81
2022/05/31 05:17:47;;;;;;;7.87;4.70;;;8.00;99.90;;;;;;5032502;28;20230;-82
2022/05/31 05:20:13;;;;;;;5.20;3.20;;;8.10;99.90;;;;;;5032560;28;20168;-81
2022/05/31 05:22:38;;;;;;;4.87;3.63;;;8.20;99.90;;;;;;5017576;28;20677;-81
2022/05/31 05:25:06;;;;;;;6.23;4.50;;;8.50;99.90;;;;;;5022565;28;20422;-81
2022/05/31 05:27:31;;;;;;;5.43;4.40;;;8.70;99.90;;;;;;5022238;28;20178;-81
2022/05/31 05:32:41;;;;;;;6.00;4.17;;;9.20;99.90;;;;;;5023205;28;20586;-81
2022/05/31 05:35:07;;;;;;;4.80;3.50;;;9.40;99.90;;;;;;5021605;28;20505;-80
2022/05/31 05:37:32;;;;;;;4.43;3.10;;;9.80;99.90;;;;;;5021747;28;20196;-82
2022/05/31 05:39:58;;;;;;;8.40;3.87;;;10.00;99.90;;;;;;5022734;28;20421;-82
2022/05/31 05:42:26;;;;;;;7.80;4.30;;;10.20;99.90;;;;;;5020960;28;20203;-82
2022/05/31 05:44:52;;;;;;;9.47;4.97;;;10.40;99.90;;;;;;5021702;28;20530;-83
2022/05/31 05:47:18;;;;;;;3.87;3.20;;;10.70;99.90;;;;;;5025845;28;20426;-82
2022/05/31 05:49:44;;;;;;;5.70;3.63;;;10.90;99.90;;;;;;5024620;28;20173;-84
2022/05/31 05:52:20;;;;;;;4.33;3.00;;;11.10;99.90;;;;;;5007931;28;20180;-84
2022/05/31 05:54:45;;;;;;;5.67;4.10;;;11.40;99.90;;;;;;5024559;28;20490;-84
2022/05/31 05:57:11;;;;;;;3.73;3.33;;;11.80;99.90;;;;;;5025342;28;21093;-83
2022/05/31 05:59:36;;;;;;;3.80;3.00;;;12.00;99.90;;;;;;5026381;28;20243;-84
2022/05/31 06:02:14;;;;;;;3.50;2.40;;;12.00;99.90;;;;;;5024128;28;20202;-84
2022/05/31 06:04:49;;;;;;;4.30;3.17;;;12.10;99.90;;;;;;5026844;28;20576;-85
2022/05/31 06:07:46;;;;;;;3.90;2.10;;;12.20;99.90;;;;;;5025751;28;20772;-86
2022/05/31 06:10:18;;;;;;;3.77;2.43;;;12.40;99.90;;;;;;5025181;28;20406;-85
2022/05/31 06:12:51;;;;;;;2.70;1.77;;;12.60;99.90;;;;;;5024164;28;20411;-82
2022/05/31 06:15:20;;;;;;;3.53;1.50;;;12.70;10.60;;;;;;5006532;28;20426;-82
2022/05/31 06:17:48;;;;;;;4.67;2.17;;;13.10;1.00;;;;;;5024465;28;20431;-83
2022/05/31 06:20:14;;;;;;;5.23;2.07;;;13.40;1.00;;;;;;5024674;28;20920;-82
2022/05/31 06:22:41;;;;;;;4.13;1.70;;;13.30;1.00;;;;;;5025824;28;20461;-83
2022/05/31 06:25:08;;;;;;;3.50;1.23;;;13.70;1.00;;;;;;5022849;28;20413;-85
2022/05/31 06:27:34;;;;;;;2.50;1.27;;;13.90;1.00;;;;;;5025316;28;20501;-83
2022/05/31 06:30:00;;;;;;;2.33;1.23;;;13.70;99.90;;;;;;5008564;28;20543;-83
2022/05/31 06:32:25;;;;;;;3.73;1.20;;;14.20;1.00;;;;;;5024038;28;20188;-82
2022/05/31 06:34:51;;;;;;;2.90;1.50;;;14.40;1.00;;;;;;5039994;28;20232;-82
2022/05/31 06:37:17;;;;;;;1.90;0.80;;;14.30;1.00;;;;;;5025541;28;20264;-83
2022/05/31 06:39:44;;;;;;;5.30;1.20;;;14.50;1.00;;;;;;5023335;28;20177;-83
2022/05/31 06:42:10;;;;;;;1.43;0.47;;;15.10;1.00;;;;;;5029432;28;20518;-81
2022/05/31 06:44:43;;;;;;;1.33;0.43;;;15.30;84.20;;;;;;5035071;28;20416;-84
2022/05/31 06:47:10;;;;;;;3.63;0.83;;;16.60;1.00;;;;;;5034916;28;20931;-84
2022/05/31 06:49:36;;;;;;;1.47;0.40;;;18.80;99.90;;;;;;5034921;28;20424;-84
2022/05/31 06:57:38;;;;;;;1.33;0.40;;;20.60;99.90;;;;;;5034086;28;20427;-85
2022/05/31 07:00:08;;;;;;;0.90;0.50;;;19.90;99.90;;;;;;5034959;28;20407;-85
2022/05/31 07:02:34;;;;;;;0.67;0.40;;;20.50;99.90;;;;;;5034512;28;20472;-85
2022/05/31 07:05:10;;;;;;;1.03;0.37;;;20.50;99.90;;;;;;5034456;28;20414;-82
2022/05/31 07:07:36;;;;;;;1.90;0.43;;;20.90;99.90;;;;;;5034133;28;20501;-83
2022/05/31 07:10:03;;;;;;;1.60;0.40;;;21.40;99.90;;;;;;5033900;28;20545;-82
2022/05/31 07:12:29;;;;;;;1.40;0.40;;;21.70;95.40;;;;;;5016402;28;20201;-83
2022/05/31 07:14:55;;;;;;;0.70;0.43;;;21.70;91.00;;;;;;5034228;28;20421;-83
2022/05/31 07:17:20;;;;;;;1.20;0.40;;;21.90;86.60;;;;;;5049448;28;20259;-82
2022/05/31 07:19:46;;;;;;;0.73;0.20;;;21.10;59.60;;;;;;5034194;28;20352;-83
2022/05/31 07:22:15;;;;;;;1.50;0.50;;;20.60;55.20;;;;;;5034048;28;20673;-83
2022/05/31 07:24:40;;;;;;;1.87;0.50;;;20.40;61.20;;;;;;5033689;28;20221;-82
2022/05/31 07:27:18;;;;;;;1.70;0.43;;;20.00;63.80;;;;;;5034018;28;20413;-82
2022/05/31 07:29:44;;;;;;;1.33;0.40;;;21.20;68.50;;;;;;5033930;28;20214;-84
2022/05/31 07:32:12;;;;;;;3.23;0.20;;;21.80;88.70;;;;;;5034044;28;20428;-83
2022/05/31 07:34:38;;;;;;;1.03;0.20;;;21.90;68.90;;;;;;5034153;28;20647;-83
2022/05/31 07:37:04;;;;;;;1.27;0.53;;;22.50;71.60;;;;;;5034082;28;20468;-83
2022/05/31 07:39:30;;;;;;;2.20;0.30;;;23.00;64.50;;;;;;5033602;28;20170;-85
2022/05/31 07:41:56;;;;;;;2.23;0.40;;;22.90;63.50;;;;;;5033863;28;20511;-84
2022/05/31 07:44:25;;;;;;;1.53;0.40;;;22.90;54.90;;;;;;5016152;28;20183;-84
2022/05/31 07:46:51;;;;;;;0.60;0.20;;;22.40;49.80;;;;;;5033941;28;20409;-85
2022/05/31 07:49:16;;;;;;;1.53;0.50;;;22.50;45.10;;;;;;5033960;28;20420;-84
2022/05/31 07:51:42;;;;;;;0.83;0.30;;;22.80;46.00;;;;;;5033835;28;20440;-84
2022/05/31 07:54:08;;;;;;;0.90;0.30;;;23.00;44.40;;;;;;5033360;28;20175;-84
2022/05/31 07:56:34;;;;;;;1.60;0.30;;;22.90;37.60;;;;;;5015580;28;20185;-84
2022/05/31 07:59:02;;;;;;;1.27;0.40;;;22.70;35.40;;;;;;5033214;28;20177;-85
2022/05/31 08:01:28;;;;;;;1.30;0.60;;;23.00;49.40;;;;;;5033028;28;20220;-84
2022/05/31 08:03:54;;;;;;;1.33;0.67;;;23.20;39.60;;;;;;5033126;28;20417;-84
2022/05/31 08:06:27;;;;;;;2.63;0.77;;;22.20;26.80;;;;;;5033171;28;20185;-85
2022/05/31 08:08:53;;;;;;;2.03;1.57;;;21.80;29.50;;;;;;5032599;28;20220;-85
2022/05/31 08:11:24;;;;;;;2.83;1.57;;;22.20;33.60;;;;;;5030588;28;20425;-84
2022/05/31 08:13:49;;;;;;;2.37;1.70;;;21.60;26.30;;;;;;5037371;28;20182;-83
2022/05/31 08:16:18;;;;;;;2.57;1.30;;;21.00;25.10;;;;;;5035725;28;20420;-84
2022/05/31 08:18:44;;;;;;;2.43;1.60;;;19.80;22.20;;;;;;5033995;28;20178;-83
2022/05/31 08:21:14;;;;;;;1.70;0.77;;;19.10;33.30;;;;;;5035927;28;20428;-84
2022/05/31 08:23:40;;;;;;;2.03;1.20;;;18.70;35.80;;;;;;5036838;28;20467;-83
2022/05/31 08:26:09;;;;;;;2.43;1.53;;;19.00;46.00;;;;;;5038800;28;20417;-85
2022/05/31 08:28:36;;;;;;;1.67;1.13;;;19.00;56.80;;;;;;5033092;28;20174;-85
2022/05/31 08:31:10;;;;;;;1.73;1.00;;;19.30;60.10;;;;;;5031579;28;20464;-87
2022/05/31 08:33:36;;;;;;;1.30;0.90;;;19.50;66.00;;;;;;5033170;28;20910;-87
2022/05/31 08:36:02;;;;;;;2.33;1.20;;;19.00;65.00;;;;;;5015056;28;20413;-86
2022/05/31 08:38:28;;;;;;;1.97;1.63;;;18.40;93.30;;;;;;5014627;28;20816;-83
2022/05/31 08:41:06;;;;;;;2.30;1.33;;;19.20;94.20;;;;;;5032676;28;20478;-83
2022/05/31 08:43:47;;;;;;;3.87;1.60;;;20.30;51.30;;;;;;5032657;28;20189;-84
2022/05/31 08:46:23;;;;;;;1.70;0.97;;;22.50;48.00;;;;;;5032724;28;20400;-84
2022/05/31 08:48:59;;;;;;;1.60;1.03;;;24.00;52.40;;;;;;5032646;28;20421;-83
2022/05/31 08:51:55;;;;;;;1.77;0.83;;;24.40;45.50;;;;;;5019974;28;20505;-84
2022/05/31 08:57:26;;;;;;;2.40;1.57;;;24.40;35.70;;;;;;5012641;28;20413;-85
2022/05/31 09:00:02;;;;;;;2.63;1.37;;;24.60;34.50;;;;;;5012708;28;20774;-84
2022/05/31 09:02:54;;;;;;;2.63;1.70;;;24.00;27.00;;;;;;5012448;28;20505;-85
2022/05/31 09:05:35;;;;;;;1.90;1.60;;;23.00;18.80;;;;;;5012597;28;20493;-84
2022/05/31 09:08:21;;;;;;;2.67;1.97;;;23.20;23.00;;;;;;5012146;28;20402;-84
2022/05/31 09:10:59;;;;;;;2.30;2.13;;;23.30;24.10;;;;;;5012670;28;20406;-85
2022/05/31 09:13:50;;;;;;;3.73;2.30;;;22.70;17.20;;;;;;5011265;28;20424;-84
2022/05/31 09:16:33;;;;;;;3.20;2.20;;;23.80;27.40;;;;;;5012501;28;20807;-84
2022/05/31 09:19:07;;;;;;;2.33;2.10;;;24.50;24.70;;;;;;5012529;28;20453;-84
2022/05/31 09:21:45;;;;;;;3.23;2.07;;;24.60;21.70;;;;;;5014480;28;20543;-84
2022/05/31 09:24:19;;;;;;;1.40;1.23;;;25.10;27.30;;;;;;5015468;28;20783;-84
2022/05/31 09:27:09;;;;;;;1.30;1.20;;;25.90;32.50;;;;;;5017390;28;20436;-83
2022/05/31 09:29:55;;;;;;;2.37;1.90;;;24.40;18.80;;;;;;5043559;28;20474;-83
2022/05/31 09:32:58;;;;;;;2.10;1.70;;;21.10;1.00;;;;;;5037626;28;21009;-84
2022/05/31 09:35:51;;;;;;;2.40;1.60;;;19.40;4.00;;;;;;5055670;28;20464;-83
2022/05/31 09:38:37;;;;;;;2.30;1.20;;;18.80;16.20;;;;;;5037279;28;20448;-84
2022/05/31 09:41:08;;;;;;;3.03;1.37;;;18.60;12.00;;;;;;5037659;28;20799;-84
2022/05/31 09:44:11;;;;;;;2.10;1.90;;;18.50;44.20;;;;;;5055283;28;20453;-84
2022/05/31 09:46:45;;;;;;;2.10;1.23;;;18.60;56.00;;;;;;5055533;28;20408;-83
2022/05/31 09:49:23;;;;;;;1.17;0.80;;;18.70;25.40;;;;;;5053527;28;20438;-83
2022/05/31 09:51:49;;;;;;;1.10;1.00;;;18.90;22.10;;;;;;5035644;28;20469;-84
2022/05/31 09:57:06;;;;;;;2.27;0.70;;;19.50;24.30;;;;;;5035829;28;20915;-83
2022/05/31 09:59:51;;;;;;;1.17;0.87;;;21.20;26.40;;;;;;5035361;28;20409;-84
2022/05/31 10:02:31;;;;;;;1.73;0.70;;;21.30;12.80;;;;;;5035453;28;20448;-85
2022/05/31 10:05:14;;;;;;;1.73;0.60;;;20.30;5.40;;;;;;5035561;28;20420;-86
2022/05/31 10:07:40;;;;;;;0.77;0.47;;;19.80;2.70;;;;;;5015100;28;20426;-85
2022/05/31 10:10:15;;;;;;;2.30;0.80;;;19.80;12.20;;;;;;5019148;28;20428;-85
2022/05/31 10:12:54;;;;;;;2.10;0.77;;;20.10;10.90;;;;;;5024077;28;20210;-87
2022/05/31 10:15:38;;;;;;;3.57;1.20;;;19.90;4.30;;;;;;5023136;28;20810;-85
2022/05/31 10:18:08;;;;;;;1.97;0.70;;;19.80;14.30;;;;;;5023888;28;20414;-86
2022/05/31 10:20:35;;;;;;;2.57;1.33;;;21.10;28.30;;;;;;5005571;28;20418;-85
2022/05/31 10:23:03;;;;;;;1.50;0.67;;;20.70;16.70;;;;;;5028481;28;20427;-87
2022/05/31 10:25:35;;;;;;;1.30;0.67;;;20.60;31.70;;;;;;5034595;28;20456;-87
2022/05/31 10:28:12;;;;;;;2.47;0.73;;;20.20;18.30;;;;;;5020235;28;20476;-88
2022/05/31 10:30:38;;;;;;;1.00;0.80;;;20.10;20.20;;;;;;5014342;28;20453;-87
2022/05/31 10:33:11;;;;;;;1.53;0.50;;;20.10;23.20;;;;;;4998240;28;20500;-89
2022/05/31 10:35:42;;;;;;;1.93;0.33;;;20.20;16.70;;;;;;4997857;28;20450;-87
2022/05/31 10:38:17;;;;;;;5.00;0.83;;;20.50;20.30;;;;;;5016419;28;20471;-85
2022/05/31 10:40:59;;;;;;;1.90;0.77;;;21.20;39.00;;;;;;5031133;28;20467;-84
2022/05/31 10:43:37;;;;;;;5.17;0.93;;;21.50;27.30;;;;;;5003336;28;20410;-86
2022/05/31 10:46:07;;;;;;;1.00;0.50;;;21.70;27.70;;;;;;4996786;28;20838;-87
2022/05/31 10:48:38;;;;;;;1.60;0.47;;;21.30;20.50;;;;;;4996832;28;20433;-89
2022/05/31 10:51:09;;;;;;;1.10;0.60;;;21.20;19.40;;;;;;4996721;28;20418;-89
2022/05/31 10:53:40;;;;;;;2.60;0.80;;;21.80;16.70;;;;;;5013989;28;20434;-86
2022/05/31 10:56:17;;;;;;;1.27;0.70;;;22.00;11.10;;;;;;5014377;28;20413;-88
2022/05/31 10:58:59;;;;;;;1.67;0.60;;;22.00;15.30;;;;;;5014060;28;20429;-87
2022/05/31 11:01:49;;;;;;;1.33;0.43;;;22.30;11.90;;;;;;5014170;28;20509;-84
2022/05/31 11:04:50;;;;;;;1.10;0.40;;;22.70;14.50;;;;;;5016129;28;20422;-86
2022/05/31 11:07:40;;;;;;;1.20;0.40;;;23.00;29.90;;;;;;4998672;28;20426;-87
2022/05/31 11:13:10;;;;;;;2.30;0.20;;;23.00;8.20;;;;;;4983219;28;20572;-85
2022/05/31 11:15:42;;;;;;;1.37;0.40;;;21.30;5.60;;;;;;5014569;28;20410;-87
2022/05/31 11:18:45;;;;;;;0.93;0.20;;;22.80;17.60;;;;;;5034222;28;20932;-86
2022/05/31 11:21:17;;;;;;;0.80;0.30;;;23.20;9.80;;;;;;5028579;28;20834;-86
2022/05/31 11:24:03;;;;;;;2.33;0.77;;;22.40;4.40;;;;;;4995985;28;20433;-86
2022/05/31 11:26:50;;;;;;;1.27;0.50;;;21.70;10.10;;;;;;5011963;28;20421;-87
2022/05/31 11:29:38;;;;;;;1.27;0.40;;;20.60;1.00;;;;;;4995830;28;20449;-88
2022/05/31 11:32:22;;;;;;;0.83;0.20;;;20.80;8.30;;;;;;5018825;28;20487;-87
2022/05/31 11:35:03;;;;;;;1.20;0.40;;;20.30;5.00;;;;;;5008032;28;20425;-86
2022/05/31 11:37:53;;;;;;;1.57;0.20;;;20.10;1.00;;;;;;4993626;28;20434;-86
2022/05/31 11:40:56;;;;;;;1.60;0.40;;;20.80;1.00;;;;;;5012067;28;20528;-83
2022/05/31 11:43:28;;;;;;;1.00;0.40;;;20.30;1.00;;;;;;5032694;28;20425;-86
2022/05/31 11:46:29;;;;;;;2.00;0.47;;;21.30;1.00;;;;;;5012786;28;20478;-89
2022/05/31 11:48:59;;;;;;;1.13;0.20;;;22.20;1.00;;;;;;4995841;28;20512;-91
2022/05/31 11:51:40;;;;;;;1.00;0.30;;;22.10;1.00;;;;;;5002275;28;20831;-86
2022/05/31 11:54:36;;;;;;;1.30;0.50;;;21.80;1.00;;;;;;5006300;28;20457;-89
2022/05/31 11:57:12;;;;;;;2.10;0.30;;;22.50;1.00;;;;;;5024472;28;20425;-85
2022/05/31 11:59:49;;;;;;;1.50;0.53;;;23.30;1.00;;;;;;5023760;28;20513;-89
2022/05/31 12:02:34;;;;;;;1.33;0.20;;;23.10;1.00;;;;;;5023020;28;20416;-87
2022/05/31 12:05:07;;;;;;;1.70;0.40;;;23.10;1.00;;;;;;5023873;28;20437;-92
2022/05/31 12:08:06;;;;;;;0.70;0.23;;;23.50;1.00;;;;;;5022431;28;20497;-88
2022/05/31 12:10:41;;;;;;;4.03;0.40;;;23.30;1.00;;;;;;5008002;28;20425;-88
2022/05/31 12:13:10;;;;;;;1.57;0.40;;;22.80;1.00;;;;;;5021646;28;20530;-88
2022/05/31 12:15:39;;;;;;;2.07;0.30;;;21.90;1.00;;;;;;5012350;28;20424;-84
2022/05/31 12:18:37;;;;;;;2.13;0.67;;;21.40;1.00;;;;;;5009114;28;20425;-83
2022/05/31 12:21:33;;;;;;;0.70;0.40;;;21.10;1.00;;;;;;5053339;28;20473;-86
2022/05/31 12:24:29;;;;;;;1.60;0.40;;;20.90;1.00;;;;;;4998128;28;20418;-88
2022/05/31 12:27:00;;;;;;;1.80;0.43;;;20.70;1.00;;;;;;5014029;28;20929;-89
2022/05/31 12:29:33;;;;;;;0.50;0.20;;;20.40;1.00;;;;;;5014859;28;20453;-92
2022/05/31 12:32:28;;;;;;;2.03;0.30;;;20.20;1.00;;;;;;5022246;28;20488;-88
2022/05/31 12:34:55;;;;;;;0.60;0.40;;;20.00;1.00;;;;;;5024182;28;20449;-91
2022/05/31 12:37:20;;;;;;;2.70;0.47;;;19.50;1.00;;;;;;5025200;28;20405;-89
2022/05/31 12:39:48;;;;;;;1.33;0.23;;;19.10;1.00;;;;;;5002500;28;20413;-88
2022/05/31 12:42:13;;;;;;;2.07;0.60;;;19.10;1.10;;;;;;5024626;28;20176;-88
2022/05/31 12:44:44;;;;;;;0.63;0.30;;;19.30;1.00;;;;;;5024764;28;20453;-90
2022/05/31 12:47:15;;;;;;;3.73;0.40;;;19.20;1.00;;;;;;5023917;28;20231;-86
2022/05/31 12:49:55;;;;;;;1.20;0.30;;;19.30;1.00;;;;;;5027528;28;20428;-92
2022/05/31 12:55:31;;;;;;;0.50;0.20;;;19.50;1.00;;;;;;5023447;28;20427;-94
2022/05/31 12:58:26;;;;;;;1.33;0.20;;;19.40;1.00;;;;;;5030501;28;20935;-88
2022/05/31 13:00:56;;;;;;;1.33;0.30;;;19.40;1.00;;;;;;5009362;28;20421;-94
2022/05/31 13:03:34;;;;;;;0.70;0.27;;;19.00;1.00;;;;;;5010440;28;20519;-89
2022/05/31 13:06:10;;;;;;;0.50;0.20;;;19.10;1.00;;;;;;5013657;28;20429;-90
2022/05/31 13:08:59;;;;;;;1.07;0.30;;;19.10;1.00;;;;;;5008269;28;20407;-89
2022/05/31 13:20:31;;;;;;;1.80;0.30;;;18.70;1.00;;;;;;5017559;28;20422;-89
2022/05/31 13:23:13;;;;;;;0.83;0.20;;;18.70;1.00;;;;;;5016076;28;20430;-90
2022/05/31 13:25:54;;;;;;;2.30;0.53;;;18.80;1.00;;;;;;5025735;28;20937;-90
2022/05/31 13:28:44;;;;;;;0.43;0.20;;;18.80;1.00;;;;;;5011104;28;20509;-91
2022/05/31 13:31:13;;;;;;;0.40;0.20;;;18.80;1.00;;;;;;5009729;28;20454;-87
2022/05/31 13:33:40;;;;;;;0.77;0.30;;;18.80;1.00;;;;;;5015766;28;20478;-90
2022/05/31 13:36:15;;;;;;;0.50;0.20;;;19.00;1.00;;;;;;5035864;28;20479;-87
2022/05/31 13:38:43;;;;;;;1.30;0.30;;;19.20;1.00;;;;;;5007993;28;20478;-88
2022/05/31 13:41:12;;;;;;;1.77;0.60;;;19.40;1.00;;;;;;5009148;28;20418;-91
2022/05/31 13:43:50;;;;;;;1.43;0.20;;;19.20;1.00;;;;;;5004945;28;20543;-89
2022/05/31 13:46:23;;;;;;;1.80;0.30;;;19.10;1.00;;;;;;5007384;28;20425;-88
2022/05/31 13:48:52;;;;;;;1.50;0.27;;;19.20;1.00;;;;;;5018364;28;20511;-87